sensor_id;sensor_type;location;lat;lon;timestamp;temperature;humidity
51595;DHT22;37677;53.254;6.594;2023-04-24T00:00:06;12.10;90.00
51595;DHT22;37677;53.254;6.594;2023-04-24T00:02:32;11.50;88.40
51595;DHT22;37677;53.254;6.594;2023-04-24T00:04:58;11.80;89.70
51595;DHT22;37677;53.254;6.594;2023-04-24T00:07:28;12.20;90.00
51595;DHT22;37677;53.254;6.594;2023-04-24T00:09:54;11.40;88.80
51595;DHT22;37677;53.254;6.594;2023-04-24T00:12:20;11.60;87.90
51595;DHT22;37677;53.254;6.594;2023-04-24T00:14:46;11.50;87.00
51595;DHT22;37677;53.254;6.594;2023-04-24T00:17:12;11.60;86.80
51595;DHT22;37677;53.254;6.594;2023-04-24T00:19:38;11.50;86.00
51595;DHT22;37677;53.254;6.594;2023-04-24T00:22:04;11.60;86.00
51595;DHT22;37677;53.254;6.594;2023-04-24T00:24:30;11.60;86.10
51595;DHT22;37677;53.254;6.594;2023-04-24T00:26:56;11.60;84.30
51595;DHT22;37677;53.254;6.594;2023-04-24T00:29:22;11.50;83.00
51595;DHT22;37677;53.254;6.594;2023-04-24T00:31:48;11.40;82.10
51595;DHT22;37677;53.254;6.594;2023-04-24T00:34:13;11.60;81.80
51595;DHT22;37677;53.254;6.594;2023-04-24T00:36:39;11.50;81.20
51595;DHT22;37677;53.254;6.594;2023-04-24T00:39:05;11.50;80.90
51595;DHT22;37677;53.254;6.594;2023-04-24T00:41:34;11.40;80.60
51595;DHT22;37677;53.254;6.594;2023-04-24T00:43:59;12.40;79.90
51595;DHT22;37677;53.254;6.594;2023-04-24T00:46:25;11.20;77.30
51595;DHT22;37677;53.254;6.594;2023-04-24T00:48:51;12.00;76.50
51595;DHT22;37677;53.254;6.594;2023-04-24T00:51:17;11.30;72.70
51595;DHT22;37677;53.254;6.594;2023-04-24T00:53:43;11.30;70.90
51595;DHT22;37677;53.254;6.594;2023-04-24T00:56:09;11.10;69.40
51595;DHT22;37677;53.254;6.594;2023-04-24T00:58:35;12.10;68.00
51595;DHT22;37677;53.254;6.594;2023-04-24T01:01:02;11.20;66.20
51595;DHT22;37677;53.254;6.594;2023-04-24T01:03:29;10.90;65.50
51595;DHT22;37677;53.254;6.594;2023-04-24T01:05:57;10.90;67.50
51595;DHT22;37677;53.254;6.594;2023-04-24T01:08:24;11.70;68.80
51595;DHT22;37677;53.254;6.594;2023-04-24T01:10:52;10.90;70.30
51595;DHT22;37677;53.254;6.594;2023-04-24T01:13:19;11.00;70.90
51595;DHT22;37677;53.254;6.594;2023-04-24T01:15:45;11.70;72.00
51595;DHT22;37677;53.254;6.594;2023-04-24T01:18:11;10.90;72.20
51595;DHT22;37677;53.254;6.594;2023-04-24T01:20:41;10.80;73.10
51595;DHT22;37677;53.254;6.594;2023-04-24T01:23:08;10.90;70.20
51595;DHT22;37677;53.254;6.594;2023-04-24T01:25:34;10.90;71.90
51595;DHT22;37677;53.254;6.594;2023-04-24T01:28:00;10.90;73.00
51595;DHT22;37677;53.254;6.594;2023-04-24T01:30:27;10.90;71.90
51595;DHT22;37677;53.254;6.594;2023-04-24T01:32:53;10.80;73.00
51595;DHT22;37677;53.254;6.594;2023-04-24T01:35:19;11.10;72.30
51595;DHT22;37677;53.254;6.594;2023-04-24T01:37:45;10.80;73.40
51595;DHT22;37677;53.254;6.594;2023-04-24T01:40:11;10.80;72.70
51595;DHT22;37677;53.254;6.594;2023-04-24T01:42:37;10.70;75.00
51595;DHT22;37677;53.254;6.594;2023-04-24T01:45:04;10.60;75.70
51595;DHT22;37677;53.254;6.594;2023-04-24T01:47:31;10.80;76.30
51595;DHT22;37677;53.254;6.594;2023-04-24T01:49:57;11.40;76.60
51595;DHT22;37677;53.254;6.594;2023-04-24T01:52:23;10.80;77.00
51595;DHT22;37677;53.254;6.594;2023-04-24T01:54:49;12.00;80.90
51595;DHT22;37677;53.254;6.594;2023-04-24T01:57:15;10.90;81.50
51595;DHT22;37677;53.254;6.594;2023-04-24T01:59:41;11.40;81.20
51595;DHT22;37677;53.254;6.594;2023-04-24T02:02:07;11.20;83.80
51595;DHT22;37677;53.254;6.594;2023-04-24T02:04:33;10.60;84.60
51595;DHT22;37677;53.254;6.594;2023-04-24T02:06:59;10.70;83.00
51595;DHT22;37677;53.254;6.594;2023-04-24T02:09:24;10.50;81.40
51595;DHT22;37677;53.254;6.594;2023-04-24T02:11:50;10.70;84.20
51595;DHT22;37677;53.254;6.594;2023-04-24T02:14:16;10.60;86.20
51595;DHT22;37677;53.254;6.594;2023-04-24T02:16:42;10.40;86.40
51595;DHT22;37677;53.254;6.594;2023-04-24T02:19:07;11.90;88.00
51595;DHT22;37677;53.254;6.594;2023-04-24T02:21:33;10.60;91.40
51595;DHT22;37677;53.254;6.594;2023-04-24T02:23:59;10.50;91.80
51595;DHT22;37677;53.254;6.594;2023-04-24T02:26:25;10.50;91.40
51595;DHT22;37677;53.254;6.594;2023-04-24T02:28:51;10.50;91.70
51595;DHT22;37677;53.254;6.594;2023-04-24T02:31:17;10.50;91.90
51595;DHT22;37677;53.254;6.594;2023-04-24T02:33:42;10.60;93.00
51595;DHT22;37677;53.254;6.594;2023-04-24T02:36:08;10.60;93.00
51595;DHT22;37677;53.254;6.594;2023-04-24T02:38:34;10.40;93.00
51595;DHT22;37677;53.254;6.594;2023-04-24T02:41:00;11.30;94.20
51595;DHT22;37677;53.254;6.594;2023-04-24T02:43:27;11.20;94.80
51595;DHT22;37677;53.254;6.594;2023-04-24T02:45:53;11.40;95.10
51595;DHT22;37677;53.254;6.594;2023-04-24T02:48:18;10.50;97.30
51595;DHT22;37677;53.254;6.594;2023-04-24T02:50:46;10.40;96.00
51595;DHT22;37677;53.254;6.594;2023-04-24T02:53:11;10.60;96.80
51595;DHT22;37677;53.254;6.594;2023-04-24T02:55:37;10.40;96.50
51595;DHT22;37677;53.254;6.594;2023-04-24T02:58:03;10.40;96.50
51595;DHT22;37677;53.254;6.594;2023-04-24T03:00:28;11.40;97.20
51595;DHT22;37677;53.254;6.594;2023-04-24T03:02:55;10.50;97.80
51595;DHT22;37677;53.254;6.594;2023-04-24T03:05:21;10.50;98.10
51595;DHT22;37677;53.254;6.594;2023-04-24T03:07:47;10.50;97.70
51595;DHT22;37677;53.254;6.594;2023-04-24T03:10:12;10.50;97.50
51595;DHT22;37677;53.254;6.594;2023-04-24T03:12:38;10.50;98.20
51595;DHT22;37677;53.254;6.594;2023-04-24T03:15:04;10.60;98.20
51595;DHT22;37677;53.254;6.594;2023-04-24T03:17:30;10.50;98.20
51595;DHT22;37677;53.254;6.594;2023-04-24T03:19:55;10.60;98.60
51595;DHT22;37677;53.254;6.594;2023-04-24T03:22:21;10.60;99.20
51595;DHT22;37677;53.254;6.594;2023-04-24T03:24:47;10.70;99.30
51595;DHT22;37677;53.254;6.594;2023-04-24T03:27:12;10.50;99.90
51595;DHT22;37677;53.254;6.594;2023-04-24T03:29:38;10.50;99.90
51595;DHT22;37677;53.254;6.594;2023-04-24T03:32:04;10.70;99.90
51595;DHT22;37677;53.254;6.594;2023-04-24T03:34:29;10.60;99.90
51595;DHT22;37677;53.254;6.594;2023-04-24T03:36:55;10.70;99.90
51595;DHT22;37677;53.254;6.594;2023-04-24T03:39:20;10.60;99.90
51595;DHT22;37677;53.254;6.594;2023-04-24T03:41:46;10.50;99.90
51595;DHT22;37677;53.254;6.594;2023-04-24T03:44:12;10.80;99.90
51595;DHT22;37677;53.254;6.594;2023-04-24T03:46:37;10.50;99.90
51595;DHT22;37677;53.254;6.594;2023-04-24T03:49:03;10.60;99.90
51595;DHT22;37677;53.254;6.594;2023-04-24T03:51:28;10.70;99.90
51595;DHT22;37677;53.254;6.594;2023-04-24T03:53:56;10.60;99.90
51595;DHT22;37677;53.254;6.594;2023-04-24T03:56:21;10.50;99.90
51595;DHT22;37677;53.254;6.594;2023-04-24T03:58:47;10.90;99.90
51595;DHT22;37677;53.254;6.594;2023-04-24T04:01:13;10.70;99.90
51595;DHT22;37677;53.254;6.594;2023-04-24T04:03:41;10.60;99.90
51595;DHT22;37677;53.254;6.594;2023-04-24T04:06:07;10.70;99.90
51595;DHT22;37677;53.254;6.594;2023-04-24T04:08:32;10.60;99.90
51595;DHT22;37677;53.254;6.594;2023-04-24T04:10:58;10.50;99.90
51595;DHT22;37677;53.254;6.594;2023-04-24T04:13:24;10.70;99.90
51595;DHT22;37677;53.254;6.594;2023-04-24T04:15:50;10.50;99.90
51595;DHT22;37677;53.254;6.594;2023-04-24T04:18:15;10.60;99.90
51595;DHT22;37677;53.254;6.594;2023-04-24T04:20:41;10.60;99.90
51595;DHT22;37677;53.254;6.594;2023-04-24T04:23:07;10.70;99.90
51595;DHT22;37677;53.254;6.594;2023-04-24T04:25:33;10.60;99.90
51595;DHT22;37677;53.254;6.594;2023-04-24T04:27:58;10.60;99.90
51595;DHT22;37677;53.254;6.594;2023-04-24T04:30:25;10.90;99.90
51595;DHT22;37677;53.254;6.594;2023-04-24T04:32:51;10.60;99.90
51595;DHT22;37677;53.254;6.594;2023-04-24T04:35:17;10.60;99.90
51595;DHT22;37677;53.254;6.594;2023-04-24T04:37:42;10.60;99.90
51595;DHT22;37677;53.254;6.594;2023-04-24T04:40:08;10.60;99.90
51595;DHT22;37677;53.254;6.594;2023-04-24T04:42:37;10.70;99.90
51595;DHT22;37677;53.254;6.594;2023-04-24T04:45:07;10.70;99.90
51595;DHT22;37677;53.254;6.594;2023-04-24T04:47:34;10.70;99.90
51595;DHT22;37677;53.254;6.594;2023-04-24T04:50:00;10.60;99.90
51595;DHT22;37677;53.254;6.594;2023-04-24T04:52:26;10.60;99.90
51595;DHT22;37677;53.254;6.594;2023-04-24T04:54:52;10.50;99.90
51595;DHT22;37677;53.254;6.594;2023-04-24T04:57:18;10.80;99.90
51595;DHT22;37677;53.254;6.594;2023-04-24T04:59:43;10.70;99.90
51595;DHT22;37677;53.254;6.594;2023-04-24T05:02:09;10.60;99.90
51595;DHT22;37677;53.254;6.594;2023-04-24T05:04:35;10.60;99.90
51595;DHT22;37677;53.254;6.594;2023-04-24T05:07:00;10.90;99.90
51595;DHT22;37677;53.254;6.594;2023-04-24T05:09:26;10.80;99.90
51595;DHT22;37677;53.254;6.594;2023-04-24T05:11:53;10.50;99.90
51595;DHT22;37677;53.254;6.594;2023-04-24T05:14:18;10.80;99.90
51595;DHT22;37677;53.254;6.594;2023-04-24T05:16:44;10.50;99.90
51595;DHT22;37677;53.254;6.594;2023-04-24T05:19:10;10.50;99.90
51595;DHT22;37677;53.254;6.594;2023-04-24T05:21:37;10.60;99.90
51595;DHT22;37677;53.254;6.594;2023-04-24T05:24:02;10.70;99.90
51595;DHT22;37677;53.254;6.594;2023-04-24T05:26:29;10.50;99.90
51595;DHT22;37677;53.254;6.594;2023-04-24T05:28:54;10.60;99.90
51595;DHT22;37677;53.254;6.594;2023-04-24T05:31:20;10.80;99.90
51595;DHT22;37677;53.254;6.594;2023-04-24T05:33:46;10.60;99.90
51595;DHT22;37677;53.254;6.594;2023-04-24T05:36:12;10.80;99.90
51595;DHT22;37677;53.254;6.594;2023-04-24T05:38:38;10.90;99.90
51595;DHT22;37677;53.254;6.594;2023-04-24T05:41:03;10.80;99.90
51595;DHT22;37677;53.254;6.594;2023-04-24T05:43:29;10.50;99.90
51595;DHT22;37677;53.254;6.594;2023-04-24T05:45:55;10.70;99.90
51595;DHT22;37677;53.254;6.594;2023-04-24T05:48:20;10.40;99.90
51595;DHT22;37677;53.254;6.594;2023-04-24T05:50:47;10.40;99.90
51595;DHT22;37677;53.254;6.594;2023-04-24T05:53:13;10.50;99.90
51595;DHT22;37677;53.254;6.594;2023-04-24T05:55:39;10.50;99.90
51595;DHT22;37677;53.254;6.594;2023-04-24T05:58:05;10.70;99.90
51595;DHT22;37677;53.254;6.594;2023-04-24T06:00:31;10.60;99.90
51595;DHT22;37677;53.254;6.594;2023-04-24T06:02:59;10.50;99.90
51595;DHT22;37677;53.254;6.594;2023-04-24T06:05:25;10.50;99.90
51595;DHT22;37677;53.254;6.594;2023-04-24T06:07:51;10.90;99.90
51595;DHT22;37677;53.254;6.594;2023-04-24T06:10:17;10.50;99.90
51595;DHT22;37677;53.254;6.594;2023-04-24T06:12:42;10.40;99.90
51595;DHT22;37677;53.254;6.594;2023-04-24T06:15:09;10.80;99.90
51595;DHT22;37677;53.254;6.594;2023-04-24T06:17:34;10.50;99.90
51595;DHT22;37677;53.254;6.594;2023-04-24T06:20:00;10.40;99.90
51595;DHT22;37677;53.254;6.594;2023-04-24T06:22:26;10.70;99.90
51595;DHT22;37677;53.254;6.594;2023-04-24T06:24:51;10.60;99.90
51595;DHT22;37677;53.254;6.594;2023-04-24T06:27:17;10.70;99.90
51595;DHT22;37677;53.254;6.594;2023-04-24T06:29:42;10.30;99.90
51595;DHT22;37677;53.254;6.594;2023-04-24T06:32:08;10.40;99.90
51595;DHT22;37677;53.254;6.594;2023-04-24T06:34:34;11.20;99.90
51595;DHT22;37677;53.254;6.594;2023-04-24T06:37:01;10.60;99.90
51595;DHT22;37677;53.254;6.594;2023-04-24T06:39:27;10.60;99.90
51595;DHT22;37677;53.254;6.594;2023-04-24T06:41:53;10.60;99.90
51595;DHT22;37677;53.254;6.594;2023-04-24T06:44:18;10.50;99.90
51595;DHT22;37677;53.254;6.594;2023-04-24T06:46:44;10.50;99.90
51595;DHT22;37677;53.254;6.594;2023-04-24T06:49:10;10.40;99.90
51595;DHT22;37677;53.254;6.594;2023-04-24T06:51:36;10.60;99.90
51595;DHT22;37677;53.254;6.594;2023-04-24T06:54:02;10.40;99.90
51595;DHT22;37677;53.254;6.594;2023-04-24T06:56:28;10.30;99.90
51595;DHT22;37677;53.254;6.594;2023-04-24T06:58:54;10.30;99.90
51595;DHT22;37677;53.254;6.594;2023-04-24T07:01:20;10.40;99.90
51595;DHT22;37677;53.254;6.594;2023-04-24T07:03:46;10.70;99.90
51595;DHT22;37677;53.254;6.594;2023-04-24T07:06:11;10.70;99.90
51595;DHT22;37677;53.254;6.594;2023-04-24T07:08:38;10.60;99.90
51595;DHT22;37677;53.254;6.594;2023-04-24T07:11:04;10.60;99.90
51595;DHT22;37677;53.254;6.594;2023-04-24T07:13:29;10.40;99.90
51595;DHT22;37677;53.254;6.594;2023-04-24T07:15:55;11.00;99.90
51595;DHT22;37677;53.254;6.594;2023-04-24T07:18:22;10.60;99.90
51595;DHT22;37677;53.254;6.594;2023-04-24T07:20:47;10.40;99.90
51595;DHT22;37677;53.254;6.594;2023-04-24T07:23:15;10.30;99.90
51595;DHT22;37677;53.254;6.594;2023-04-24T07:25:41;10.50;99.90
51595;DHT22;37677;53.254;6.594;2023-04-24T07:28:07;10.10;99.90
51595;DHT22;37677;53.254;6.594;2023-04-24T07:30:32;10.20;99.90
51595;DHT22;37677;53.254;6.594;2023-04-24T07:32:59;10.30;99.90
51595;DHT22;37677;53.254;6.594;2023-04-24T07:35:25;10.40;99.90
51595;DHT22;37677;53.254;6.594;2023-04-24T07:37:52;10.10;99.90
51595;DHT22;37677;53.254;6.594;2023-04-24T07:40:19;9.90;99.90
51595;DHT22;37677;53.254;6.594;2023-04-24T07:42:45;10.00;99.90
51595;DHT22;37677;53.254;6.594;2023-04-24T07:45:14;9.90;99.90
51595;DHT22;37677;53.254;6.594;2023-04-24T07:47:41;10.00;99.90
51595;DHT22;37677;53.254;6.594;2023-04-24T07:50:09;10.40;99.90
51595;DHT22;37677;53.254;6.594;2023-04-24T07:52:39;10.00;99.90
51595;DHT22;37677;53.254;6.594;2023-04-24T07:55:05;10.00;99.90
51595;DHT22;37677;53.254;6.594;2023-04-24T07:57:31;9.90;99.90
51595;DHT22;37677;53.254;6.594;2023-04-24T07:59:56;10.20;99.90
51595;DHT22;37677;53.254;6.594;2023-04-24T08:02:22;10.00;99.90
51595;DHT22;37677;53.254;6.594;2023-04-24T08:04:52;10.10;99.90
51595;DHT22;37677;53.254;6.594;2023-04-24T08:07:19;9.90;99.90
51595;DHT22;37677;53.254;6.594;2023-04-24T08:09:45;10.10;99.90
51595;DHT22;37677;53.254;6.594;2023-04-24T08:12:11;10.10;99.90
51595;DHT22;37677;53.254;6.594;2023-04-24T08:14:36;9.90;99.90
51595;DHT22;37677;53.254;6.594;2023-04-24T08:17:02;10.20;99.90
51595;DHT22;37677;53.254;6.594;2023-04-24T08:19:29;9.80;99.90
51595;DHT22;37677;53.254;6.594;2023-04-24T08:21:54;10.00;99.90
51595;DHT22;37677;53.254;6.594;2023-04-24T08:24:20;9.80;99.90
51595;DHT22;37677;53.254;6.594;2023-04-24T08:26:46;9.90;99.90
51595;DHT22;37677;53.254;6.594;2023-04-24T08:29:12;9.80;99.90
51595;DHT22;37677;53.254;6.594;2023-04-24T08:31:37;10.10;99.90
51595;DHT22;37677;53.254;6.594;2023-04-24T08:34:03;10.20;99.90
51595;DHT22;37677;53.254;6.594;2023-04-24T08:36:29;10.20;99.70
51595;DHT22;37677;53.254;6.594;2023-04-24T08:38:56;9.80;99.90
51595;DHT22;37677;53.254;6.594;2023-04-24T08:41:21;9.80;99.90
51595;DHT22;37677;53.254;6.594;2023-04-24T08:43:51;9.80;99.90
51595;DHT22;37677;53.254;6.594;2023-04-24T08:46:18;10.00;99.90
51595;DHT22;37677;53.254;6.594;2023-04-24T08:48:45;10.10;99.90
51595;DHT22;37677;53.254;6.594;2023-04-24T08:51:11;9.50;98.80
51595;DHT22;37677;53.254;6.594;2023-04-24T08:53:37;9.50;98.80
51595;DHT22;37677;53.254;6.594;2023-04-24T08:56:03;9.50;98.70
51595;DHT22;37677;53.254;6.594;2023-04-24T08:58:31;9.00;97.00
51595;DHT22;37677;53.254;6.594;2023-04-24T09:00:57;9.50;98.40
51595;DHT22;37677;53.254;6.594;2023-04-24T09:03:24;9.20;98.30
51595;DHT22;37677;53.254;6.594;2023-04-24T09:05:52;9.40;98.40
51595;DHT22;37677;53.254;6.594;2023-04-24T09:08:20;9.40;97.00
51595;DHT22;37677;53.254;6.594;2023-04-24T09:10:48;9.50;96.60
51595;DHT22;37677;53.254;6.594;2023-04-24T09:13:14;9.20;95.60
51595;DHT22;37677;53.254;6.594;2023-04-24T09:15:41;9.30;96.20
51595;DHT22;37677;53.254;6.594;2023-04-24T09:18:06;9.20;95.60
51595;DHT22;37677;53.254;6.594;2023-04-24T09:20:33;9.60;96.00
51595;DHT22;37677;53.254;6.594;2023-04-24T09:23:00;9.20;94.00
51595;DHT22;37677;53.254;6.594;2023-04-24T09:25:34;9.70;94.40
51595;DHT22;37677;53.254;6.594;2023-04-24T09:28:05;9.30;92.80
51595;DHT22;37677;53.254;6.594;2023-04-24T09:30:32;9.40;92.30
51595;DHT22;37677;53.254;6.594;2023-04-24T09:33:12;9.70;91.10
51595;DHT22;37677;53.254;6.594;2023-04-24T09:35:49;9.50;90.80
51595;DHT22;37677;53.254;6.594;2023-04-24T09:38:15;9.50;90.40
51595;DHT22;37677;53.254;6.594;2023-04-24T09:40:41;9.70;88.90
51595;DHT22;37677;53.254;6.594;2023-04-24T09:43:10;9.50;84.00
51595;DHT22;37677;53.254;6.594;2023-04-24T09:45:37;9.60;85.80
51595;DHT22;37677;53.254;6.594;2023-04-24T09:48:04;9.50;85.00
51595;DHT22;37677;53.254;6.594;2023-04-24T09:50:32;9.60;88.00
51595;DHT22;37677;53.254;6.594;2023-04-24T09:53:04;9.40;88.40
51595;DHT22;37677;53.254;6.594;2023-04-24T09:55:30;9.70;90.10
51595;DHT22;37677;53.254;6.594;2023-04-24T09:57:59;9.50;89.40
51595;DHT22;37677;53.254;6.594;2023-04-24T10:00:31;9.40;88.50
51595;DHT22;37677;53.254;6.594;2023-04-24T10:03:01;10.00;87.20
51595;DHT22;37677;53.254;6.594;2023-04-24T10:05:35;9.60;90.40
51595;DHT22;37677;53.254;6.594;2023-04-24T10:08:11;9.80;91.00
51595;DHT22;37677;53.254;6.594;2023-04-24T10:10:46;9.90;68.40
51595;DHT22;37677;53.254;6.594;2023-04-24T10:13:13;10.10;59.40
51595;DHT22;37677;53.254;6.594;2023-04-24T10:15:41;10.40;33.30
51595;DHT22;37677;53.254;6.594;2023-04-24T10:18:07;10.60;33.20
51595;DHT22;37677;53.254;6.594;2023-04-24T10:20:36;10.70;31.80
51595;DHT22;37677;53.254;6.594;2023-04-24T10:25:33;10.80;29.80
51595;DHT22;37677;53.254;6.594;2023-04-24T10:28:00;10.80;3.20
51595;DHT22;37677;53.254;6.594;2023-04-24T10:30:29;10.80;11.00
51595;DHT22;37677;53.254;6.594;2023-04-24T10:32:55;10.50;2.00
51595;DHT22;37677;53.254;6.594;2023-04-24T10:35:21;10.60;13.10
51595;DHT22;37677;53.254;6.594;2023-04-24T10:37:56;10.90;12.70
51595;DHT22;37677;53.254;6.594;2023-04-24T10:40:42;10.90;19.50
51595;DHT22;37677;53.254;6.594;2023-04-24T10:43:09;11.30;1.00
51595;DHT22;37677;53.254;6.594;2023-04-24T10:45:38;11.60;1.00
51595;DHT22;37677;53.254;6.594;2023-04-24T10:48:06;11.10;1.00
51595;DHT22;37677;53.254;6.594;2023-04-24T10:50:47;11.20;1.00
51595;DHT22;37677;53.254;6.594;2023-04-24T10:53:16;11.20;1.00
51595;DHT22;37677;53.254;6.594;2023-04-24T10:58:10;10.80;1.00
51595;DHT22;37677;53.254;6.594;2023-04-24T11:00:38;11.00;1.00
51595;DHT22;37677;53.254;6.594;2023-04-24T11:03:27;11.30;1.00
51595;DHT22;37677;53.254;6.594;2023-04-24T11:06:03;10.80;1.00
51595;DHT22;37677;53.254;6.594;2023-04-24T11:08:36;10.90;1.00
51595;DHT22;37677;53.254;6.594;2023-04-24T11:11:10;11.20;1.00
51595;DHT22;37677;53.254;6.594;2023-04-24T11:18:59;11.10;1.00
51595;DHT22;37677;53.254;6.594;2023-04-24T11:21:27;11.00;1.00
51595;DHT22;37677;53.254;6.594;2023-04-24T11:23:56;11.10;1.00
51595;DHT22;37677;53.254;6.594;2023-04-24T11:26:22;11.10;1.00
51595;DHT22;37677;53.254;6.594;2023-04-24T11:29:06;10.80;1.00
51595;DHT22;37677;53.254;6.594;2023-04-24T11:31:40;10.80;1.00
51595;DHT22;37677;53.254;6.594;2023-04-24T11:34:08;10.60;1.00
51595;DHT22;37677;53.254;6.594;2023-04-24T11:36:37;10.30;1.00
51595;DHT22;37677;53.254;6.594;2023-04-24T11:39:03;10.70;1.00
51595;DHT22;37677;53.254;6.594;2023-04-24T11:41:29;10.80;1.00
51595;DHT22;37677;53.254;6.594;2023-04-24T11:43:56;10.90;1.00
51595;DHT22;37677;53.254;6.594;2023-04-24T11:46:27;10.70;1.00
51595;DHT22;37677;53.254;6.594;2023-04-24T11:48:53;10.50;1.00
51595;DHT22;37677;53.254;6.594;2023-04-24T11:51:18;10.30;1.00
51595;DHT22;37677;53.254;6.594;2023-04-24T11:53:44;10.50;1.00
51595;DHT22;37677;53.254;6.594;2023-04-24T11:56:10;10.50;1.00
51595;DHT22;37677;53.254;6.594;2023-04-24T11:58:37;10.40;1.00
51595;DHT22;37677;53.254;6.594;2023-04-24T12:01:03;10.40;1.00
51595;DHT22;37677;53.254;6.594;2023-04-24T12:03:29;11.90;45.60
51595;DHT22;37677;53.254;6.594;2023-04-24T12:06:05;12.20;1.00
51595;DHT22;37677;53.254;6.594;2023-04-24T12:08:33;11.90;1.00
51595;DHT22;37677;53.254;6.594;2023-04-24T12:11:04;11.60;1.00
51595;DHT22;37677;53.254;6.594;2023-04-24T12:13:30;11.10;1.00
51595;DHT22;37677;53.254;6.594;2023-04-24T12:16:03;12.20;1.00
51595;DHT22;37677;53.254;6.594;2023-04-24T12:18:30;10.30;1.00
51595;DHT22;37677;53.254;6.594;2023-04-24T12:21:23;10.30;1.00
51595;DHT22;37677;53.254;6.594;2023-04-24T12:23:54;10.00;1.00
51595;DHT22;37677;53.254;6.594;2023-04-24T12:26:21;9.80;1.00
51595;DHT22;37677;53.254;6.594;2023-04-24T12:28:49;9.80;1.00
51595;DHT22;37677;53.254;6.594;2023-04-24T12:31:16;10.00;1.00
51595;DHT22;37677;53.254;6.594;2023-04-24T12:33:41;9.90;1.00
51595;DHT22;37677;53.254;6.594;2023-04-24T12:36:10;10.50;1.00
51595;DHT22;37677;53.254;6.594;2023-04-24T12:38:37;10.20;1.00
51595;DHT22;37677;53.254;6.594;2023-04-24T12:41:11;10.40;1.00
51595;DHT22;37677;53.254;6.594;2023-04-24T12:46:04;10.90;1.00
51595;DHT22;37677;53.254;6.594;2023-04-24T12:48:30;11.30;1.00
51595;DHT22;37677;53.254;6.594;2023-04-24T12:50:58;10.90;1.00
51595;DHT22;37677;53.254;6.594;2023-04-24T12:53:27;11.00;1.00
51595;DHT22;37677;53.254;6.594;2023-04-24T13:00:50;10.80;1.00
51595;DHT22;37677;53.254;6.594;2023-04-24T13:05:47;10.50;1.00
51595;DHT22;37677;53.254;6.594;2023-04-24T13:08:13;10.40;1.00
51595;DHT22;37677;53.254;6.594;2023-04-24T13:10:42;10.20;1.00
51595;DHT22;37677;53.254;6.594;2023-04-24T13:13:08;10.20;1.00
51595;DHT22;37677;53.254;6.594;2023-04-24T13:15:34;10.00;1.00
51595;DHT22;37677;53.254;6.594;2023-04-24T13:18:00;11.30;1.00
51595;DHT22;37677;53.254;6.594;2023-04-24T13:20:25;10.00;1.00
51595;DHT22;37677;53.254;6.594;2023-04-24T13:22:51;9.90;1.00
51595;DHT22;37677;53.254;6.594;2023-04-24T13:25:17;9.90;1.00
51595;DHT22;37677;53.254;6.594;2023-04-24T13:27:43;9.80;1.00
51595;DHT22;37677;53.254;6.594;2023-04-24T13:30:09;9.80;1.00
51595;DHT22;37677;53.254;6.594;2023-04-24T13:32:35;9.80;1.00
51595;DHT22;37677;53.254;6.594;2023-04-24T13:35:02;9.80;1.00
51595;DHT22;37677;53.254;6.594;2023-04-24T13:37:27;9.90;1.00
51595;DHT22;37677;53.254;6.594;2023-04-24T13:39:53;10.00;1.00
51595;DHT22;37677;53.254;6.594;2023-04-24T13:42:19;10.40;1.00
51595;DHT22;37677;53.254;6.594;2023-04-24T13:44:52;10.30;1.00
51595;DHT22;37677;53.254;6.594;2023-04-24T13:47:19;10.30;1.00
51595;DHT22;37677;53.254;6.594;2023-04-24T13:49:48;10.40;1.00
51595;DHT22;37677;53.254;6.594;2023-04-24T13:52:17;10.30;1.00
51595;DHT22;37677;53.254;6.594;2023-04-24T13:54:43;10.50;1.00
51595;DHT22;37677;53.254;6.594;2023-04-24T13:57:08;10.50;1.00
51595;DHT22;37677;53.254;6.594;2023-04-24T13:59:34;10.30;1.00
51595;DHT22;37677;53.254;6.594;2023-04-24T14:02:00;10.30;1.00
51595;DHT22;37677;53.254;6.594;2023-04-24T14:04:27;10.50;1.00
51595;DHT22;37677;53.254;6.594;2023-04-24T14:06:53;10.00;1.00
51595;DHT22;37677;53.254;6.594;2023-04-24T14:09:19;10.30;1.00
51595;DHT22;37677;53.254;6.594;2023-04-24T14:11:45;9.70;4.00
51595;DHT22;37677;53.254;6.594;2023-04-24T14:14:13;10.90;23.30
51595;DHT22;37677;53.254;6.594;2023-04-24T14:31:19;9.90;28.30
51595;DHT22;37677;53.254;6.594;2023-04-24T14:36:11;9.80;22.40
51595;DHT22;37677;53.254;6.594;2023-04-24T14:38:36;9.70;22.40
51595;DHT22;37677;53.254;6.594;2023-04-24T14:41:02;9.70;27.10
51595;DHT22;37677;53.254;6.594;2023-04-24T14:43:34;9.80;28.20
51595;DHT22;37677;53.254;6.594;2023-04-24T14:46:00;9.70;44.00
51595;DHT22;37677;53.254;6.594;2023-04-24T14:48:26;10.30;46.20
51595;DHT22;37677;53.254;6.594;2023-04-24T14:50:52;9.40;49.70
51595;DHT22;37677;53.254;6.594;2023-04-24T14:53:17;9.50;45.90
51595;DHT22;37677;53.254;6.594;2023-04-24T14:55:44;9.30;40.30
51595;DHT22;37677;53.254;6.594;2023-04-24T14:58:10;9.60;25.10
51595;DHT22;37677;53.254;6.594;2023-04-24T15:00:35;9.60;23.20
51595;DHT22;37677;53.254;6.594;2023-04-24T15:03:01;9.50;23.00
51595;DHT22;37677;53.254;6.594;2023-04-24T15:05:27;11.20;30.80
51595;DHT22;37677;53.254;6.594;2023-04-24T15:07:52;9.50;33.10
51595;DHT22;37677;53.254;6.594;2023-04-24T15:10:21;9.50;35.90
51595;DHT22;37677;53.254;6.594;2023-04-24T15:12:48;9.50;36.50
51595;DHT22;37677;53.254;6.594;2023-04-24T15:15:17;9.50;33.10
51595;DHT22;37677;53.254;6.594;2023-04-24T15:17:42;9.60;39.60
51595;DHT22;37677;53.254;6.594;2023-04-24T15:20:08;11.20;29.20
51595;DHT22;37677;53.254;6.594;2023-04-24T15:22:34;9.80;29.40
51595;DHT22;37677;53.254;6.594;2023-04-24T15:25:00;8.90;26.10
51595;DHT22;37677;53.254;6.594;2023-04-24T15:27:26;9.70;18.70
51595;DHT22;37677;53.254;6.594;2023-04-24T15:29:52;9.50;27.30
51595;DHT22;37677;53.254;6.594;2023-04-24T15:32:19;9.80;27.60
51595;DHT22;37677;53.254;6.594;2023-04-24T15:34:44;9.60;28.60
51595;DHT22;37677;53.254;6.594;2023-04-24T15:37:10;10.30;29.30
51595;DHT22;37677;53.254;6.594;2023-04-24T15:39:36;10.60;29.90
51595;DHT22;37677;53.254;6.594;2023-04-24T15:42:02;9.80;20.90
51595;DHT22;37677;53.254;6.594;2023-04-24T15:44:28;9.80;5.90
51595;DHT22;37677;53.254;6.594;2023-04-24T15:46:54;10.20;8.10
51595;DHT22;37677;53.254;6.594;2023-04-24T15:49:20;10.10;4.70
51595;DHT22;37677;53.254;6.594;2023-04-24T15:51:46;10.00;9.50
51595;DHT22;37677;53.254;6.594;2023-04-24T15:54:12;9.90;26.20
51595;DHT22;37677;53.254;6.594;2023-04-24T15:56:37;9.70;39.50
51595;DHT22;37677;53.254;6.594;2023-04-24T15:59:03;10.20;39.00
51595;DHT22;37677;53.254;6.594;2023-04-24T16:01:29;9.70;54.30
51595;DHT22;37677;53.254;6.594;2023-04-24T16:03:58;10.00;57.00
51595;DHT22;37677;53.254;6.594;2023-04-24T16:06:23;10.20;58.30
51595;DHT22;37677;53.254;6.594;2023-04-24T16:08:49;9.30;69.20
51595;DHT22;37677;53.254;6.594;2023-04-24T16:11:15;9.20;70.10